sensor_id;sensor_type;location;lat;lon;timestamp;P1;durP1;ratioP1;P2;durP2;ratioP2
47866;SDS011;33628;50.806;11.586;2024-01-27T00:01:57;1724.97;;;999.90;;
47866;SDS011;33628;50.806;11.586;2024-01-27T00:04:26;1722.90;;;999.90;;
47866;SDS011;33628;50.806;11.586;2024-01-27T00:06:55;1742.93;;;999.90;;
47866;SDS011;33628;50.806;11.586;2024-01-27T00:09:22;1785.83;;;999.90;;
47866;SDS011;33628;50.806;11.586;2024-01-27T00:11:48;1865.72;;;999.90;;
47866;SDS011;33628;50.806;11.586;2024-01-27T00:14:15;1710.53;;;999.90;;
47866;SDS011;33628;50.806;11.586;2024-01-27T00:16:41;1773.00;;;999.90;;
47866;SDS011;33628;50.806;11.586;2024-01-27T00:19:08;1702.68;;;999.90;;
47866;SDS011;33628;50.806;11.586;2024-01-27T00:21:36;1545.47;;;999.90;;
47866;SDS011;33628;50.806;11.586;2024-01-27T00:24:03;1545.43;;;999.90;;
47866;SDS011;33628;50.806;11.586;2024-01-27T00:26:29;1545.37;;;999.90;;
47866;SDS011;33628;50.806;11.586;2024-01-27T00:28:56;1587.05;;;999.90;;
47866;SDS011;33628;50.806;11.586;2024-01-27T00:31:22;1600.47;;;999.90;;
47866;SDS011;33628;50.806;11.586;2024-01-27T00:33:49;1581.72;;;999.90;;
47866;SDS011;33628;50.806;11.586;2024-01-27T00:36:16;1581.80;;;999.90;;
47866;SDS011;33628;50.806;11.586;2024-01-27T00:38:45;1570.55;;;999.90;;
47866;SDS011;33628;50.806;11.586;2024-01-27T00:41:15;1573.10;;;999.90;;
47866;SDS011;33628;50.806;11.586;2024-01-27T00:43:42;1570.37;;;999.90;;
47866;SDS011;33628;50.806;11.586;2024-01-27T00:46:09;1575.77;;;999.90;;
47866;SDS011;33628;50.806;11.586;2024-01-27T00:48:35;1570.20;;;999.90;;
47866;SDS011;33628;50.806;11.586;2024-01-27T00:51:02;1542.17;;;999.90;;
47866;SDS011;33628;50.806;11.586;2024-01-27T00:53:29;1571.90;;;999.90;;
47866;SDS011;33628;50.806;11.586;2024-01-27T00:55:57;1568.90;;;999.90;;
47866;SDS011;33628;50.806;11.586;2024-01-27T00:58:23;1580.20;;;999.90;;
47866;SDS011;33628;50.806;11.586;2024-01-27T01:00:50;1463.80;;;999.90;;
47866;SDS011;33628;50.806;11.586;2024-01-27T01:03:16;1452.18;;;999.90;;
47866;SDS011;33628;50.806;11.586;2024-01-27T01:05:43;1453.20;;;999.90;;
47866;SDS011;33628;50.806;11.586;2024-01-27T01:08:10;1457.43;;;999.90;;
47866;SDS011;33628;50.806;11.586;2024-01-27T01:10:36;1484.05;;;999.90;;
47866;SDS011;33628;50.806;11.586;2024-01-27T01:13:04;1488.65;;;999.90;;
47866;SDS011;33628;50.806;11.586;2024-01-27T01:15:31;1477.15;;;999.90;;
47866;SDS011;33628;50.806;11.586;2024-01-27T01:17:58;1491.03;;;999.90;;
47866;SDS011;33628;50.806;11.586;2024-01-27T01:20:25;1507.03;;;999.90;;
47866;SDS011;33628;50.806;11.586;2024-01-27T01:22:52;1509.53;;;999.90;;
47866;SDS011;33628;50.806;11.586;2024-01-27T01:25:19;1510.60;;;999.90;;
47866;SDS011;33628;50.806;11.586;2024-01-27T01:27:46;1514.88;;;999.90;;
47866;SDS011;33628;50.806;11.586;2024-01-27T01:30:16;1528.47;;;999.90;;
47866;SDS011;33628;50.806;11.586;2024-01-27T01:32:43;1518.25;;;999.90;;
47866;SDS011;33628;50.806;11.586;2024-01-27T01:35:10;1525.50;;;999.90;;
47866;SDS011;33628;50.806;11.586;2024-01-27T01:37:37;1531.60;;;999.90;;
47866;SDS011;33628;50.806;11.586;2024-01-27T01:40:05;1653.95;;;999.90;;
47866;SDS011;33628;50.806;11.586;2024-01-27T01:42:33;1662.67;;;999.90;;
47866;SDS011;33628;50.806;11.586;2024-01-27T01:45:00;1665.87;;;999.90;;
47866;SDS011;33628;50.806;11.586;2024-01-27T01:47:29;1666.97;;;999.90;;
47866;SDS011;33628;50.806;11.586;2024-01-27T01:49:56;1645.05;;;999.90;;
47866;SDS011;33628;50.806;11.586;2024-01-27T01:52:24;1664.18;;;999.90;;
47866;SDS011;33628;50.806;11.586;2024-01-27T01:54:50;1652.70;;;999.90;;
47866;SDS011;33628;50.806;11.586;2024-01-27T01:57:17;1659.55;;;999.90;;
47866;SDS011;33628;50.806;11.586;2024-01-27T01:59:44;1585.25;;;999.90;;
47866;SDS011;33628;50.806;11.586;2024-01-27T02:02:12;1577.60;;;999.90;;
47866;SDS011;33628;50.806;11.586;2024-01-27T02:04:41;1573.32;;;999.90;;
47866;SDS011;33628;50.806;11.586;2024-01-27T02:07:08;1571.30;;;999.90;;
47866;SDS011;33628;50.806;11.586;2024-01-27T02:09:35;1569.55;;;999.90;;
47866;SDS011;33628;50.806;11.586;2024-01-27T02:12:02;1587.70;;;999.90;;
47866;SDS011;33628;50.806;11.586;2024-01-27T02:14:30;1570.80;;;999.90;;
47866;SDS011;33628;50.806;11.586;2024-01-27T02:16:57;1575.97;;;999.90;;
47866;SDS011;33628;50.806;11.586;2024-01-27T02:19:24;1576.88;;;999.90;;
47866;SDS011;33628;50.806;11.586;2024-01-27T02:21:52;1582.68;;;999.90;;
47866;SDS011;33628;50.806;11.586;2024-01-27T02:24:20;1562.10;;;999.90;;
47866;SDS011;33628;50.806;11.586;2024-01-27T02:26:47;1596.50;;;999.90;;
47866;SDS011;33628;50.806;11.586;2024-01-27T02:29:13;1576.90;;;999.90;;
47866;SDS011;33628;50.806;11.586;2024-01-27T02:31:40;1589.65;;;999.90;;
47866;SDS011;33628;50.806;11.586;2024-01-27T02:34:07;1589.18;;;999.90;;
47866;SDS011;33628;50.806;11.586;2024-01-27T02:36:34;1593.97;;;999.90;;
47866;SDS011;33628;50.806;11.586;2024-01-27T02:39:01;1608.13;;;999.90;;
47866;SDS011;33628;50.806;11.586;2024-01-27T02:41:31;1601.28;;;999.90;;
47866;SDS011;33628;50.806;11.586;2024-01-27T02:44:03;1610.28;;;999.90;;
47866;SDS011;33628;50.806;11.586;2024-01-27T02:46:31;1602.72;;;999.90;;
47866;SDS011;33628;50.806;11.586;2024-01-27T02:48:58;1603.43;;;999.90;;
47866;SDS011;33628;50.806;11.586;2024-01-27T02:51:25;1592.68;;;999.90;;
47866;SDS011;33628;50.806;11.586;2024-01-27T02:53:51;1585.85;;;999.90;;
47866;SDS011;33628;50.806;11.586;2024-01-27T02:56:18;1596.97;;;999.90;;
47866;SDS011;33628;50.806;11.586;2024-01-27T02:58:46;1585.07;;;999.90;;
47866;SDS011;33628;50.806;11.586;2024-01-27T03:01:12;1592.28;;;999.90;;
47866;SDS011;33628;50.806;11.586;2024-01-27T03:03:39;1603.60;;;999.90;;
47866;SDS011;33628;50.806;11.586;2024-01-27T03:06:05;1614.70;;;999.90;;
47866;SDS011;33628;50.806;11.586;2024-01-27T03:08:32;1610.80;;;999.90;;
47866;SDS011;33628;50.806;11.586;2024-01-27T03:10:59;1612.57;;;999.90;;
47866;SDS011;33628;50.806;11.586;2024-01-27T03:13:25;1687.07;;;999.90;;
47866;SDS011;33628;50.806;11.586;2024-01-27T03:15:53;1747.83;;;999.90;;
47866;SDS011;33628;50.806;11.586;2024-01-27T03:18:21;1723.47;;;999.90;;
47866;SDS011;33628;50.806;11.586;2024-01-27T03:20:50;1751.37;;;999.90;;
47866;SDS011;33628;50.806;11.586;2024-01-27T03:23:16;1717.85;;;999.90;;
47866;SDS011;33628;50.806;11.586;2024-01-27T03:25:43;1721.33;;;999.90;;
47866;SDS011;33628;50.806;11.586;2024-01-27T03:28:09;1719.78;;;999.90;;
47866;SDS011;33628;50.806;11.586;2024-01-27T03:30:36;1714.37;;;999.90;;
47866;SDS011;33628;50.806;11.586;2024-01-27T03:33:04;1739.77;;;999.90;;
47866;SDS011;33628;50.806;11.586;2024-01-27T03:35:32;1747.38;;;999.90;;
47866;SDS011;33628;50.806;11.586;2024-01-27T03:37:58;1743.80;;;999.90;;
47866;SDS011;33628;50.806;11.586;2024-01-27T03:40:25;1761.05;;;999.90;;
47866;SDS011;33628;50.806;11.586;2024-01-27T03:42:51;1772.27;;;999.90;;
47866;SDS011;33628;50.806;11.586;2024-01-27T03:45:18;1765.43;;;999.90;;
47866;SDS011;33628;50.806;11.586;2024-01-27T03:47:45;1761.57;;;999.90;;
47866;SDS011;33628;50.806;11.586;2024-01-27T03:50:13;1786.80;;;999.90;;
47866;SDS011;33628;50.806;11.586;2024-01-27T03:52:40;1791.37;;;999.90;;
47866;SDS011;33628;50.806;11.586;2024-01-27T03:55:07;1851.73;;;999.90;;
47866;SDS011;33628;50.806;11.586;2024-01-27T03:57:34;1958.73;;;999.90;;
47866;SDS011;33628;50.806;11.586;2024-01-27T04:00:00;1943.63;;;999.90;;
47866;SDS011;33628;50.806;11.586;2024-01-27T04:02:30;1679.60;;;999.90;;
47866;SDS011;33628;50.806;11.586;2024-01-27T04:04:57;1694.50;;;999.90;;
47866;SDS011;33628;50.806;11.586;2024-01-27T04:07:25;1685.33;;;999.90;;
47866;SDS011;33628;50.806;11.586;2024-01-27T04:09:53;1665.80;;;999.90;;
47866;SDS011;33628;50.806;11.586;2024-01-27T04:12:19;1908.20;;;999.90;;
47866;SDS011;33628;50.806;11.586;2024-01-27T04:14:46;1755.53;;;999.90;;
47866;SDS011;33628;50.806;11.586;2024-01-27T04:17:12;1850.95;;;999.90;;
47866;SDS011;33628;50.806;11.586;2024-01-27T04:19:39;1837.15;;;999.90;;
47866;SDS011;33628;50.806;11.586;2024-01-27T04:22:05;1806.78;;;999.90;;
47866;SDS011;33628;50.806;11.586;2024-01-27T04:24:34;1805.00;;;999.90;;
47866;SDS011;33628;50.806;11.586;2024-01-27T04:27:01;1830.90;;;999.90;;
47866;SDS011;33628;50.806;11.586;2024-01-27T04:29:28;1831.35;;;999.90;;
47866;SDS011;33628;50.806;11.586;2024-01-27T04:31:54;1845.88;;;999.90;;
47866;SDS011;33628;50.806;11.586;2024-01-27T04:34:21;1841.60;;;999.90;;
47866;SDS011;33628;50.806;11.586;2024-01-27T04:36:47;1827.32;;;999.90;;
47866;SDS011;33628;50.806;11.586;2024-01-27T04:39:15;1808.22;;;999.90;;
47866;SDS011;33628;50.806;11.586;2024-01-27T04:41:43;1823.25;;;999.90;;
47866;SDS011;33628;50.806;11.586;2024-01-27T04:44:10;1823.00;;;999.90;;
47866;SDS011;33628;50.806;11.586;2024-01-27T04:46:37;1605.63;;;999.90;;
47866;SDS011;33628;50.806;11.586;2024-01-27T04:49:03;921.00;;;694.35;;
47866;SDS011;33628;50.806;11.586;2024-01-27T04:51:30;1862.03;;;999.90;;
47866;SDS011;33628;50.806;11.586;2024-01-27T04:53:56;1839.93;;;999.90;;
47866;SDS011;33628;50.806;11.586;2024-01-27T04:56:23;1784.93;;;999.90;;
47866;SDS011;33628;50.806;11.586;2024-01-27T04:58:51;1813.70;;;999.90;;
47866;SDS011;33628;50.806;11.586;2024-01-27T05:01:17;1812.28;;;999.90;;
47866;SDS011;33628;50.806;11.586;2024-01-27T05:03:44;1803.28;;;999.90;;
47866;SDS011;33628;50.806;11.586;2024-01-27T05:06:10;1808.47;;;999.90;;
47866;SDS011;33628;50.806;11.586;2024-01-27T05:08:37;1795.63;;;999.90;;
47866;SDS011;33628;50.806;11.586;2024-01-27T05:11:04;1768.90;;;999.90;;
47866;SDS011;33628;50.806;11.586;2024-01-27T05:13:30;1779.05;;;999.90;;
47866;SDS011;33628;50.806;11.586;2024-01-27T05:15:58;675.85;;;551.22;;
47866;SDS011;33628;50.806;11.586;2024-01-27T05:18:25;46.47;;;17.63;;
47866;SDS011;33628;50.806;11.586;2024-01-27T05:20:52;1846.05;;;999.90;;
47866;SDS011;33628;50.806;11.586;2024-01-27T05:23:19;1836.40;;;999.90;;
47866;SDS011;33628;50.806;11.586;2024-01-27T05:25:45;1811.07;;;999.90;;
47866;SDS011;33628;50.806;11.586;2024-01-27T05:28:12;1851.70;;;999.90;;
47866;SDS011;33628;50.806;11.586;2024-01-27T05:30:39;1866.20;;;999.90;;
47866;SDS011;33628;50.806;11.586;2024-01-27T05:33:07;1854.30;;;999.90;;
47866;SDS011;33628;50.806;11.586;2024-01-27T05:35:34;1874.35;;;999.90;;
47866;SDS011;33628;50.806;11.586;2024-01-27T05:38:01;1873.32;;;999.90;;
47866;SDS011;33628;50.806;11.586;2024-01-27T05:40:28;1891.18;;;999.90;;
47866;SDS011;33628;50.806;11.586;2024-01-27T05:42:55;1861.43;;;999.90;;
47866;SDS011;33628;50.806;11.586;2024-01-27T05:45:21;1852.07;;;999.90;;
47866;SDS011;33628;50.806;11.586;2024-01-27T05:47:48;1853.05;;;999.90;;
47866;SDS011;33628;50.806;11.586;2024-01-27T05:50:17;1842.80;;;999.90;;
47866;SDS011;33628;50.806;11.586;2024-01-27T05:52:44;1830.40;;;999.90;;
47866;SDS011;33628;50.806;11.586;2024-01-27T05:55:10;1829.20;;;999.90;;
47866;SDS011;33628;50.806;11.586;2024-01-27T05:57:38;1902.57;;;999.90;;
47866;SDS011;33628;50.806;11.586;2024-01-27T06:00:05;1920.30;;;999.90;;
47866;SDS011;33628;50.806;11.586;2024-01-27T06:02:35;1951.95;;;999.90;;
47866;SDS011;33628;50.806;11.586;2024-01-27T06:05:02;1938.22;;;999.90;;
47866;SDS011;33628;50.806;11.586;2024-01-27T06:07:30;1917.38;;;999.90;;
47866;SDS011;33628;50.806;11.586;2024-01-27T06:09:57;1929.78;;;999.90;;
47866;SDS011;33628;50.806;11.586;2024-01-27T06:12:23;1900.47;;;999.90;;
47866;SDS011;33628;50.806;11.586;2024-01-27T06:14:51;1910.95;;;999.90;;
47866;SDS011;33628;50.806;11.586;2024-01-27T06:17:20;1814.95;;;999.90;;
47866;SDS011;33628;50.806;11.586;2024-01-27T06:19:47;1824.53;;;999.90;;
47866;SDS011;33628;50.806;11.586;2024-01-27T06:22:13;1866.37;;;999.90;;
47866;SDS011;33628;50.806;11.586;2024-01-27T06:24:44;1896.23;;;999.90;;
47866;SDS011;33628;50.806;11.586;2024-01-27T06:27:11;1633.43;;;999.90;;
47866;SDS011;33628;50.806;11.586;2024-01-27T06:29:37;1516.70;;;999.90;;
47866;SDS011;33628;50.806;11.586;2024-01-27T06:32:06;1437.70;;;999.90;;
47866;SDS011;33628;50.806;11.586;2024-01-27T06:34:32;1508.77;;;999.90;;
47866;SDS011;33628;50.806;11.586;2024-01-27T06:36:59;1595.47;;;999.90;;
47866;SDS011;33628;50.806;11.586;2024-01-27T06:39:26;1695.30;;;999.90;;
47866;SDS011;33628;50.806;11.586;2024-01-27T06:41:54;1695.30;;;999.90;;
47866;SDS011;33628;50.806;11.586;2024-01-27T06:44:20;1667.77;;;999.90;;
47866;SDS011;33628;50.806;11.586;2024-01-27T06:46:47;1656.93;;;999.90;;
47866;SDS011;33628;50.806;11.586;2024-01-27T06:49:15;1626.53;;;999.90;;
47866;SDS011;33628;50.806;11.586;2024-01-27T06:51:43;1655.00;;;999.90;;
47866;SDS011;33628;50.806;11.586;2024-01-27T06:54:09;1724.60;;;999.90;;
47866;SDS011;33628;50.806;11.586;2024-01-27T06:56:36;1717.40;;;999.90;;
47866;SDS011;33628;50.806;11.586;2024-01-27T06:59:04;1723.93;;;999.90;;
47866;SDS011;33628;50.806;11.586;2024-01-27T07:01:33;1760.17;;;999.90;;
47866;SDS011;33628;50.806;11.586;2024-01-27T07:04:00;1752.53;;;999.90;;
47866;SDS011;33628;50.806;11.586;2024-01-27T07:06:26;1744.30;;;999.90;;
47866;SDS011;33628;50.806;11.586;2024-01-27T07:08:53;1753.53;;;999.90;;
47866;SDS011;33628;50.806;11.586;2024-01-27T07:11:19;1787.63;;;999.90;;
47866;SDS011;33628;50.806;11.586;2024-01-27T07:13:46;1769.00;;;999.90;;
47866;SDS011;33628;50.806;11.586;2024-01-27T07:16:14;1764.20;;;999.90;;
47866;SDS011;33628;50.806;11.586;2024-01-27T07:18:40;1738.30;;;999.90;;
47866;SDS011;33628;50.806;11.586;2024-01-27T07:21:07;1719.47;;;999.90;;
47866;SDS011;33628;50.806;11.586;2024-01-27T07:23:33;1721.33;;;999.90;;
47866;SDS011;33628;50.806;11.586;2024-01-27T07:26:01;1749.87;;;999.90;;
47866;SDS011;33628;50.806;11.586;2024-01-27T07:28:29;1732.67;;;999.90;;
47866;SDS011;33628;50.806;11.586;2024-01-27T07:30:55;1758.37;;;999.90;;
47866;SDS011;33628;50.806;11.586;2024-01-27T07:33:23;1766.17;;;999.90;;
47866;SDS011;33628;50.806;11.586;2024-01-27T07:35:50;1751.70;;;999.90;;
47866;SDS011;33628;50.806;11.586;2024-01-27T07:38:16;1733.73;;;999.90;;
47866;SDS011;33628;50.806;11.586;2024-01-27T07:40:43;1771.63;;;999.90;;
47866;SDS011;33628;50.806;11.586;2024-01-27T07:43:10;1760.63;;;999.90;;
47866;SDS011;33628;50.806;11.586;2024-01-27T07:45:36;1773.77;;;999.90;;
47866;SDS011;33628;50.806;11.586;2024-01-27T07:48:03;1765.90;;;999.90;;
47866;SDS011;33628;50.806;11.586;2024-01-27T07:50:32;1782.80;;;999.90;;
47866;SDS011;33628;50.806;11.586;2024-01-27T07:52:59;1760.97;;;999.90;;
47866;SDS011;33628;50.806;11.586;2024-01-27T07:55:26;1739.00;;;999.90;;
47866;SDS011;33628;50.806;11.586;2024-01-27T07:57:53;1708.40;;;999.90;;
47866;SDS011;33628;50.806;11.586;2024-01-27T08:00:20;1716.60;;;999.90;;
47866;SDS011;33628;50.806;11.586;2024-01-27T08:02:46;1714.23;;;999.90;;
47866;SDS011;33628;50.806;11.586;2024-01-27T08:05:13;1698.87;;;999.90;;
47866;SDS011;33628;50.806;11.586;2024-01-27T08:07:41;1702.97;;;999.90;;
47866;SDS011;33628;50.806;11.586;2024-01-27T08:10:08;1697.07;;;999.90;;
47866;SDS011;33628;50.806;11.586;2024-01-27T08:12:37;1662.00;;;999.90;;
47866;SDS011;33628;50.806;11.586;2024-01-27T08:18:17;1608.03;;;999.90;;
47866;SDS011;33628;50.806;11.586;2024-01-27T08:20:43;9.82;;;3.15;;
47866;SDS011;33628;50.806;11.586;2024-01-27T08:23:11;16.55;;;3.70;;
47866;SDS011;33628;50.806;11.586;2024-01-27T08:25:38;13.63;;;3.17;;
47866;SDS011;33628;50.806;11.586;2024-01-27T08:28:05;1528.07;;;961.67;;
47866;SDS011;33628;50.806;11.586;2024-01-27T08:30:32;1999.90;;;999.90;;
47866;SDS011;33628;50.806;11.586;2024-01-27T08:32:59;1999.90;;;999.90;;
47866;SDS011;33628;50.806;11.586;2024-01-27T08:35:25;1999.90;;;999.90;;
47866;SDS011;33628;50.806;11.586;2024-01-27T08:37:52;1356.47;;;883.08;;
47866;SDS011;33628;50.806;11.586;2024-01-27T08:40:20;1936.30;;;999.90;;
47866;SDS011;33628;50.806;11.586;2024-01-27T08:42:55;11.63;;;2.63;;
47866;SDS011;33628;50.806;11.586;2024-01-27T08:45:21;18.75;;;3.03;;
47866;SDS011;33628;50.806;11.586;2024-01-27T08:47:48;137.55;;;96.75;;
47866;SDS011;33628;50.806;11.586;2024-01-27T08:50:15;16.95;;;4.05;;
47866;SDS011;33628;50.806;11.586;2024-01-27T08:52:42;1969.20;;;996.33;;
47866;SDS011;33628;50.806;11.586;2024-01-27T08:55:08;1481.32;;;729.63;;
47866;SDS011;33628;50.806;11.586;2024-01-27T08:57:36;10.82;;;3.08;;
47866;SDS011;33628;50.806;11.586;2024-01-27T09:00:03;1999.90;;;999.90;;
47866;SDS011;33628;50.806;11.586;2024-01-27T09:02:31;1999.90;;;999.90;;
47866;SDS011;33628;50.806;11.586;2024-01-27T09:04:58;1999.90;;;999.90;;
47866;SDS011;33628;50.806;11.586;2024-01-27T09:07:25;1999.90;;;999.90;;
47866;SDS011;33628;50.806;11.586;2024-01-27T09:09:51;1999.90;;;999.90;;
47866;SDS011;33628;50.806;11.586;2024-01-27T09:12:18;1999.90;;;999.90;;
47866;SDS011;33628;50.806;11.586;2024-01-27T13:10:04;1999.90;;;999.90;;
47866;SDS011;33628;50.806;11.586;2024-01-27T13:12:31;1999.90;;;999.90;;
47866;SDS011;33628;50.806;11.586;2024-01-27T13:14:58;1999.90;;;999.90;;
47866;SDS011;33628;50.806;11.586;2024-01-27T13:17:25;1999.90;;;999.90;;
47866;SDS011;33628;50.806;11.586;2024-01-27T13:19:52;1999.90;;;999.90;;
47866;SDS011;33628;50.806;11.586;2024-01-27T13:22:18;1999.90;;;999.90;;
47866;SDS011;33628;50.806;11.586;2024-01-27T13:24:50;1999.90;;;999.90;;
47866;SDS011;33628;50.806;11.586;2024-01-27T13:27:18;1999.90;;;999.90;;
47866;SDS011;33628;50.806;11.586;2024-01-27T13:29:46;1999.90;;;999.90;;
47866;SDS011;33628;50.806;11.586;2024-01-27T13:32:12;1999.90;;;999.90;;
47866;SDS011;33628;50.806;11.586;2024-01-27T13:34:39;1999.90;;;999.90;;
47866;SDS011;33628;50.806;11.586;2024-01-27T13:37:06;1999.90;;;999.90;;
47866;SDS011;33628;50.806;11.586;2024-01-27T13:39:34;1999.90;;;999.90;;
47866;SDS011;33628;50.806;11.586;2024-01-27T13:42:01;1999.90;;;999.90;;
47866;SDS011;33628;50.806;11.586;2024-01-27T13:44:29;1999.90;;;999.90;;
47866;SDS011;33628;50.806;11.586;2024-01-27T13:46:56;1999.90;;;999.90;;
47866;SDS011;33628;50.806;11.586;2024-01-27T13:49:26;1999.90;;;999.90;;
47866;SDS011;33628;50.806;11.586;2024-01-27T13:51:53;1999.90;;;999.90;;
47866;SDS011;33628;50.806;11.586;2024-01-27T13:54:19;1999.90;;;999.90;;
47866;SDS011;33628;50.806;11.586;2024-01-27T13:56:46;1999.90;;;999.90;;
47866;SDS011;33628;50.806;11.586;2024-01-27T13:59:13;1999.90;;;999.90;;
47866;SDS011;33628;50.806;11.586;2024-01-27T14:01:41;1999.90;;;999.90;;
47866;SDS011;33628;50.806;11.586;2024-01-27T14:04:08;1999.90;;;999.90;;
47866;SDS011;33628;50.806;11.586;2024-01-27T14:06:34;1999.90;;;999.90;;
47866;SDS011;33628;50.806;11.586;2024-01-27T14:09:01;1999.90;;;999.90;;
47866;SDS011;33628;50.806;11.586;2024-01-27T14:11:28;1999.90;;;999.90;;
47866;SDS011;33628;50.806;11.586;2024-01-27T14:13:55;1999.90;;;999.90;;
47866;SDS011;33628;50.806;11.586;2024-01-27T14:16:22;1999.90;;;999.90;;
47866;SDS011;33628;50.806;11.586;2024-01-27T14:18:50;1999.90;;;999.90;;
47866;SDS011;33628;50.806;11.586;2024-01-27T14:21:16;8.55;;;1.10;;
47866;SDS011;33628;50.806;11.586;2024-01-27T14:23:43;271.15;;;161.50;;
47866;SDS011;33628;50.806;11.586;2024-01-27T14:26:10;7.60;;;1.45;;
47866;SDS011;33628;50.806;11.586;2024-01-27T14:28:40;9.68;;;1.80;;
47866;SDS011;33628;50.806;11.586;2024-01-27T14:31:07;87.97;;;57.50;;
47866;SDS011;33628;50.806;11.586;2024-01-27T14:33:34;7.47;;;1.20;;
47866;SDS011;33628;50.806;11.586;2024-01-27T14:36:02;7.95;;;1.33;;
47866;SDS011;33628;50.806;11.586;2024-01-27T14:38:29;11.32;;;1.70;;
47866;SDS011;33628;50.806;11.586;2024-01-27T14:40:55;8.68;;;1.33;;
47866;SDS011;33628;50.806;11.586;2024-01-27T14:43:22;1505.63;;;833.75;;
47866;SDS011;33628;50.806;11.586;2024-01-27T14:45:49;1999.90;;;999.90;;
47866;SDS011;33628;50.806;11.586;2024-01-27T14:48:16;9.43;;;1.63;;
47866;SDS011;33628;50.806;11.586;2024-01-27T14:50:44;7.60;;;1.15;;
47866;SDS011;33628;50.806;11.586;2024-01-27T14:53:15;1950.43;;;999.90;;
47866;SDS011;33628;50.806;11.586;2024-01-27T14:55:41;92.10;;;46.25;;
47866;SDS011;33628;50.806;11.586;2024-01-27T14:58:08;1999.90;;;999.90;;
47866;SDS011;33628;50.806;11.586;2024-01-27T15:00:34;1999.90;;;999.90;;
47866;SDS011;33628;50.806;11.586;2024-01-27T15:03:04;1999.90;;;999.90;;
47866;SDS011;33628;50.806;11.586;2024-01-27T15:05:31;1999.90;;;999.90;;
47866;SDS011;33628;50.806;11.586;2024-01-27T15:08:02;1999.90;;;999.90;;
47866;SDS011;33628;50.806;11.586;2024-01-27T15:10:30;1999.90;;;999.90;;
47866;SDS011;33628;50.806;11.586;2024-01-27T15:12:57;1999.90;;;999.90;;
47866;SDS011;33628;50.806;11.586;2024-01-27T15:15:24;1999.90;;;999.90;;
47866;SDS011;33628;50.806;11.586;2024-01-27T15:17:50;1999.90;;;999.90;;
47866;SDS011;33628;50.806;11.586;2024-01-27T15:20:17;1999.90;;;999.90;;
47866;SDS011;33628;50.806;11.586;2024-01-27T15:22:44;1999.90;;;999.90;;
47866;SDS011;33628;50.806;11.586;2024-01-27T15:25:10;1999.90;;;999.90;;
47866;SDS011;33628;50.806;11.586;2024-01-27T15:27:39;1999.90;;;999.90;;
47866;SDS011;33628;50.806;11.586;2024-01-27T15:30:06;1999.90;;;999.90;;
47866;SDS011;33628;50.806;11.586;2024-01-27T15:32:34;1999.90;;;999.90;;
47866;SDS011;33628;50.806;11.586;2024-01-27T15:35:01;1999.90;;;999.90;;
47866;SDS011;33628;50.806;11.586;2024-01-27T15:37:28;1999.90;;;999.90;;
47866;SDS011;33628;50.806;11.586;2024-01-27T15:39:55;1999.90;;;999.90;;
47866;SDS011;33628;50.806;11.586;2024-01-27T15:42:22;1999.90;;;999.90;;
47866;SDS011;33628;50.806;11.586;2024-01-27T15:44:50;1999.90;;;999.90;;
47866;SDS011;33628;50.806;11.586;2024-01-27T15:47:16;1999.90;;;999.90;;
47866;SDS011;33628;50.806;11.586;2024-01-27T15:49:43;1999.90;;;999.90;;
47866;SDS011;33628;50.806;11.586;2024-01-27T15:52:10;1999.90;;;999.90;;
47866;SDS011;33628;50.806;11.586;2024-01-27T15:54:37;1999.90;;;999.90;;
47866;SDS011;33628;50.806;11.586;2024-01-27T15:57:05;1999.90;;;999.90;;
47866;SDS011;33628;50.806;11.586;2024-01-27T15:59:32;1999.90;;;999.90;;
47866;SDS011;33628;50.806;11.586;2024-01-27T16:02:00;1999.90;;;999.90;;
47866;SDS011;33628;50.806;11.586;2024-01-27T16:04:26;1999.90;;;999.90;;
47866;SDS011;33628;50.806;11.586;2024-01-27T16:06:54;1950.88;;;999.90;;
47866;SDS011;33628;50.806;11.586;2024-01-27T16:09:21;30.42;;;11.70;;
47866;SDS011;33628;50.806;11.586;2024-01-27T16:11:48;18.88;;;7.53;;
47866;SDS011;33628;50.806;11.586;2024-01-27T16:14:15;23.67;;;7.13;;
47866;SDS011;33628;50.806;11.586;2024-01-27T16:16:42;17.58;;;5.50;;
47866;SDS011;33628;50.806;11.586;2024-01-27T16:19:11;12.30;;;6.20;;
47866;SDS011;33628;50.806;11.586;2024-01-27T16:21:37;11.27;;;3.83;;
47866;SDS011;33628;50.806;11.586;2024-01-27T16:24:04;8.80;;;3.08;;
47866;SDS011;33628;50.806;11.586;2024-01-27T16:26:31;8.68;;;2.28;;
47866;SDS011;33628;50.806;11.586;2024-01-27T16:28:58;8.50;;;2.20;;
47866;SDS011;33628;50.806;11.586;2024-01-27T16:31:25;29.55;;;10.68;;
47866;SDS011;33628;50.806;11.586;2024-01-27T16:33:52;25.70;;;11.35;;
47866;SDS011;33628;50.806;11.586;2024-01-27T16:36:20;274.73;;;193.57;;
47866;SDS011;33628;50.806;11.586;2024-01-27T16:38:47;48.78;;;20.52;;
47866;SDS011;33628;50.806;11.586;2024-01-27T16:41:14;52.22;;;20.50;;
47866;SDS011;33628;50.806;11.586;2024-01-27T16:43:42;725.67;;;452.05;;
47866;SDS011;33628;50.806;11.586;2024-01-27T16:46:08;1270.28;;;711.88;;
47866;SDS011;33628;50.806;11.586;2024-01-27T16:48:37;1999.90;;;999.90;;
47866;SDS011;33628;50.806;11.586;2024-01-27T16:51:04;1999.90;;;999.90;;
47866;SDS011;33628;50.806;11.586;2024-01-27T16:53:34;1999.90;;;999.90;;
47866;SDS011;33628;50.806;11.586;2024-01-27T16:56:01;1999.90;;;999.90;;
47866;SDS011;33628;50.806;11.586;2024-01-27T16:58:28;1999.90;;;999.90;;
47866;SDS011;33628;50.806;11.586;2024-01-27T17:00:55;1999.90;;;999.90;;
47866;SDS011;33628;50.806;11.586;2024-01-27T17:03:22;1999.90;;;999.90;;
47866;SDS011;33628;50.806;11.586;2024-01-27T17:05:48;1999.90;;;999.90;;
47866;SDS011;33628;50.806;11.586;2024-01-27T17:08:15;1999.90;;;999.90;;
47866;SDS011;33628;50.806;11.586;2024-01-27T17:10:44;1999.90;;;999.90;;
47866;SDS011;33628;50.806;11.586;2024-01-27T17:13:11;1999.90;;;999.90;;
47866;SDS011;33628;50.806;11.586;2024-01-27T17:15:37;1999.90;;;999.90;;
47866;SDS011;33628;50.806;11.586;2024-01-27T17:18:06;1999.90;;;999.90;;
47866;SDS011;33628;50.806;11.586;2024-01-27T17:20:34;1999.90;;;999.90;;
47866;SDS011;33628;50.806;11.586;2024-01-27T17:23:01;1999.90;;;999.90;;
47866;SDS011;33628;50.806;11.586;2024-01-27T17:25:27;1999.90;;;999.90;;
47866;SDS011;33628;50.806;11.586;2024-01-27T17:27:56;1999.90;;;999.90;;
47866;SDS011;33628;50.806;11.586;2024-01-27T17:30:22;1999.90;;;999.90;;
47866;SDS011;33628;50.806;11.586;2024-01-27T17:32:49;1999.90;;;999.90;;
47866;SDS011;33628;50.806;11.586;2024-01-27T17:35:16;1999.90;;;999.90;;
47866;SDS011;33628;50.806;11.586;2024-01-27T17:37:44;1999.90;;;999.90;;